createdAt,value
2023-03-12T00:02:16.338Z,4.88
2023-03-12T00:04:56.181Z,4.94
2023-03-12T00:07:23.422Z,4.97
2023-03-12T00:09:50.745Z,4.99
2023-03-12T00:12:17.622Z,4.97
2023-03-12T00:14:44.566Z,4.96
2023-03-12T00:17:11.713Z,4.95
2023-03-12T00:19:39.060Z,4.82
2023-03-12T00:22:05.993Z,4.73
2023-03-12T00:24:33.158Z,4.73
2023-03-12T00:27:00.096Z,4.71
2023-03-12T00:29:27.151Z,4.66
2023-03-12T00:31:56.953Z,4.59
2023-03-12T00:34:23.936Z,4.60
2023-03-12T00:36:50.760Z,4.60
2023-03-12T00:39:17.508Z,4.58
2023-03-12T00:41:44.396Z,4.58
2023-03-12T00:44:11.152Z,4.51
2023-03-12T00:46:38.384Z,4.54
2023-03-12T00:49:05.348Z,4.50
2023-03-12T00:51:32.295Z,4.38
2023-03-12T00:53:59.241Z,4.46
2023-03-12T00:56:29.586Z,4.47
2023-03-12T00:58:56.888Z,4.43
2023-03-12T01:01:24.116Z,4.42
2023-03-12T01:03:54.551Z,4.45
2023-03-12T01:06:22.597Z,4.44
2023-03-12T01:09:03.191Z,4.44
2023-03-12T01:14:26.769Z,4.42
2023-03-12T01:14:27.314Z,4.36
2023-03-12T01:16:54.034Z,4.30
2023-03-12T01:19:27.736Z,4.28
2023-03-12T01:21:55.096Z,4.33
2023-03-12T01:24:26.728Z,4.26
2023-03-12T01:26:53.779Z,4.27
2023-03-12T01:29:20.721Z,4.34
2023-03-12T01:31:47.703Z,4.38
2023-03-12T01:34:15.190Z,4.32
2023-03-12T01:36:42.146Z,4.39
2023-03-12T01:39:09.195Z,4.40
2023-03-12T01:41:40.103Z,4.32
2023-03-12T01:44:08.989Z,4.29
2023-03-12T01:46:46.233Z,4.30
2023-03-12T01:49:26.418Z,4.33
2023-03-12T01:52:04.296Z,4.28
2023-03-12T01:54:41.524Z,4.13
2023-03-12T01:57:16.980Z,4.07
2023-03-12T02:00:03.931Z,3.87
2023-03-12T02:02:52.601Z,3.95
2023-03-12T02:06:04.784Z,4.01
2023-03-12T02:08:46.811Z,3.98
2023-03-12T02:11:15.045Z,3.96
2023-03-12T02:14:05.278Z,3.94
2023-03-12T02:16:35.428Z,3.99
2023-03-12T02:19:33.520Z,3.74
2023-03-12T02:22:04.639Z,3.75
2023-03-12T02:24:48.031Z,3.69
2023-03-12T02:27:25.519Z,3.62
2023-03-12T02:33:07.436Z,3.51
2023-03-12T02:37:24.441Z,3.47
2023-03-12T02:38:59.285Z,3.47
2023-03-12T02:42:14.142Z,3.36
2023-03-12T02:45:08.468Z,3.30
2023-03-12T02:47:35.159Z,3.37
2023-03-12T02:50:42.748Z,3.46
2023-03-12T02:53:09.796Z,3.30
2023-03-12T02:55:38.231Z,3.31
2023-03-12T02:58:08.626Z,3.33
2023-03-12T03:00:37.063Z,3.29
2023-03-12T03:03:09.820Z,3.26
2023-03-12T03:05:37.823Z,3.31
2023-03-12T03:08:05.989Z,3.34
2023-03-12T03:10:32.795Z,3.29
2023-03-12T03:13:00.060Z,3.12
2023-03-12T03:15:27.626Z,3.15
2023-03-12T03:17:54.857Z,3.24
2023-03-12T03:20:23.331Z,3.16
2023-03-12T03:22:58.604Z,3.18
2023-03-12T03:31:44.695Z,2.96
2023-03-12T03:34:12.697Z,2.85
2023-03-12T03:36:39.688Z,2.84
2023-03-12T03:39:06.495Z,2.83
2023-03-12T03:41:33.330Z,2.83
2023-03-12T03:44:00.380Z,2.83
2023-03-12T03:46:27.486Z,2.80
2023-03-12T03:48:54.792Z,2.79
2023-03-12T03:51:21.963Z,2.81
2023-03-12T03:53:49.117Z,2.77
2023-03-12T03:56:17.116Z,2.73
2023-03-12T03:58:44.141Z,2.75
2023-03-12T04:01:15.644Z,2.76
2023-03-12T04:03:42.604Z,2.68
2023-03-12T04:06:10.777Z,2.65
2023-03-12T04:08:42.739Z,2.62
2023-03-12T04:11:16.816Z,2.68
2023-03-12T04:14:06.191Z,2.68
2023-03-12T04:16:33.304Z,2.75
2023-03-12T04:19:00.322Z,2.75
2023-03-12T04:21:49.160Z,2.66
2023-03-12T04:24:44.468Z,2.64
2023-03-12T04:27:49.703Z,2.57
2023-03-12T04:30:29.864Z,2.49
2023-03-12T04:35:50.511Z,2.47
2023-03-12T04:38:20.577Z,2.43
2023-03-12T04:40:47.848Z,2.48
2023-03-12T04:43:16.763Z,2.50
2023-03-12T04:45:43.452Z,2.56
2023-03-12T04:48:10.230Z,2.50
2023-03-12T04:50:47.723Z,2.41
2023-03-12T04:53:27.536Z,2.39
2023-03-12T04:55:55.063Z,2.34
2023-03-12T04:58:23.038Z,2.36
2023-03-12T05:00:50.427Z,2.30
2023-03-12T05:03:19.204Z,2.35
2023-03-12T05:05:46.336Z,2.42
2023-03-12T05:08:14.831Z,2.50
2023-03-12T05:10:48.788Z,2.55
2023-03-12T05:13:23.754Z,2.60
2023-03-12T05:15:53.187Z,2.68
2023-03-12T05:18:21.598Z,2.78
2023-03-12T05:21:08.958Z,2.85
2023-03-12T05:23:37.148Z,2.90
2023-03-12T05:26:16.171Z,2.89
2023-03-12T05:28:43.224Z,3.02
2023-03-12T05:31:11.943Z,2.96
2023-03-12T05:33:39.476Z,3.10
2023-03-12T05:36:07.604Z,3.18
2023-03-12T05:38:35.418Z,3.16
2023-03-12T05:41:02.604Z,3.24
2023-03-12T05:43:29.980Z,3.45
2023-03-12T05:46:02.863Z,3.62
2023-03-12T05:48:31.013Z,3.55
2023-03-12T05:50:58.349Z,3.59
2023-03-12T05:53:34.061Z,3.55
2023-03-12T05:56:21.866Z,3.57
2023-03-12T05:58:50.095Z,3.55
2023-03-12T06:01:51.245Z,3.71
2023-03-12T06:04:58.192Z,3.96
2023-03-12T06:07:25.329Z,4.02
2023-03-12T06:10:01.119Z,3.89
2023-03-12T06:12:36.106Z,4.00
2023-03-12T06:19:00.725Z,3.99
2023-03-12T06:24:31.137Z,3.95
2023-03-12T06:26:57.902Z,3.77
2023-03-12T06:29:24.768Z,3.85
2023-03-12T06:31:52.593Z,4.05
2023-03-12T06:34:20.572Z,4.38
2023-03-12T06:37:10.474Z,4.62
2023-03-12T06:39:46.195Z,4.72
2023-03-12T06:42:28.389Z,4.89
2023-03-12T06:51:42.496Z,5.18
2023-03-12T06:54:23.551Z,5.05
2023-03-12T06:56:58.252Z,4.89
2023-03-12T06:59:33.447Z,4.95
2023-03-12T07:02:27.170Z,5.02
2023-03-12T07:05:11.143Z,5.25
2023-03-12T07:07:52.534Z,5.37
2023-03-12T07:10:36.876Z,5.64
2023-03-12T07:13:54.366Z,5.77
2023-03-12T07:19:26.193Z,5.84
2023-03-12T07:20:49.033Z,5.75
2023-03-12T07:25:15.825Z,5.45
2023-03-12T07:28:26.569Z,5.84
2023-03-12T07:30:54.015Z,6.17
2023-03-12T07:33:40.633Z,6.04
2023-03-12T07:39:13.748Z,5.90
2023-03-12T07:41:41.787Z,5.83
2023-03-12T07:46:51.666Z,5.88
2023-03-12T07:49:35.390Z,5.50
2023-03-12T07:52:13.204Z,5.71
2023-03-12T07:54:59.387Z,5.76
2023-03-12T07:57:52.795Z,5.66
2023-03-12T08:00:32.141Z,5.80
2023-03-12T08:03:07.645Z,5.80
2023-03-12T08:05:40.893Z,5.70
2023-03-12T08:08:15.504Z,5.72
2023-03-12T08:10:44.094Z,5.96
2023-03-12T08:13:22.110Z,6.08
2023-03-12T08:15:54.455Z,6.20
2023-03-12T08:18:27.017Z,6.47
2023-03-12T08:21:59.763Z,6.76
2023-03-12T08:24:26.514Z,6.94
2023-03-12T08:26:53.535Z,7.21
2023-03-12T08:29:27.628Z,7.29
2023-03-12T08:33:15.436Z,7.10
2023-03-12T08:36:14.461Z,6.90
2023-03-12T08:38:41.497Z,6.90
2023-03-12T08:41:12.703Z,6.88
2023-03-12T08:44:00.892Z,6.85
2023-03-12T08:46:35.617Z,6.79
2023-03-12T08:49:31.254Z,6.83
2023-03-12T08:52:07.361Z,6.63
2023-03-12T08:54:38.722Z,6.42
2023-03-12T08:57:22.922Z,6.60
2023-03-12T09:00:00.753Z,6.62
2023-03-12T09:02:28.665Z,6.93
2023-03-12T09:04:58.744Z,7.02
2023-03-12T09:07:31.825Z,7.36
2023-03-12T09:10:04.360Z,7.47
2023-03-12T09:12:40.911Z,7.39
2023-03-12T09:15:16.272Z,7.12
2023-03-12T09:17:43.403Z,7.16
2023-03-12T09:20:19.670Z,7.22
2023-03-12T09:22:49.589Z,7.39
2023-03-12T09:25:21.142Z,7.43
2023-03-12T09:27:51.384Z,7.48
2023-03-12T09:30:22.716Z,7.40
2023-03-12T09:32:50.096Z,7.40
2023-03-12T09:35:20.297Z,7.34
2023-03-12T09:37:51.535Z,7.57
2023-03-12T09:40:23.384Z,7.79
2023-03-12T09:43:01.071Z,7.74
2023-03-12T09:45:45.484Z,7.74
2023-03-12T09:48:24.668Z,7.77
2023-03-12T09:50:52.647Z,7.52
2023-03-12T09:53:48.426Z,7.68
2023-03-12T09:56:19.136Z,8.07
2023-03-12T09:59:11.154Z,8.08
2023-03-12T10:01:44.727Z,8.01
2023-03-12T10:04:59.525Z,7.94
2023-03-12T10:07:49.671Z,7.70
2023-03-12T10:10:38.620Z,7.47
2023-03-12T10:13:36.743Z,7.81
2023-03-12T10:16:33.324Z,8.03
2023-03-12T10:19:22.067Z,8.18
2023-03-12T10:22:16.860Z,8.24
2023-03-12T10:24:58.675Z,8.28
2023-03-12T10:27:54.594Z,8.48
2023-03-12T10:30:48.708Z,8.54
2023-03-12T10:33:20.737Z,8.50
2023-03-12T10:35:57.121Z,8.31
2023-03-12T10:38:45.654Z,8.24
2023-03-12T10:41:34.794Z,8.15
2023-03-12T10:44:09.228Z,8.09
2023-03-12T10:46:57.711Z,8.09
2023-03-12T10:49:54.298Z,8.28
2023-03-12T10:52:26.028Z,8.47
2023-03-12T10:54:54.835Z,8.32
2023-03-12T10:57:40.546Z,8.26
2023-03-12T11:00:13.848Z,8.08
2023-03-12T11:02:46.624Z,8.13
2023-03-12T11:05:22.507Z,8.17
2023-03-12T11:07:49.849Z,8.31
2023-03-12T11:10:47.812Z,8.13
2023-03-12T11:13:40.898Z,7.91
2023-03-12T11:16:17.001Z,7.66
2023-03-12T11:19:17.372Z,7.55
2023-03-12T11:22:01.513Z,7.41
2023-03-12T11:24:30.207Z,7.63
2023-03-12T11:27:08.024Z,7.83
2023-03-12T11:29:40.545Z,7.98
2023-03-12T11:32:35.830Z,7.85
2023-03-12T11:35:11.804Z,7.87
2023-03-12T11:38:16.541Z,7.83
2023-03-12T11:40:53.144Z,7.91
2023-03-12T11:43:43.359Z,8.05
2023-03-12T11:46:57.612Z,8.08
2023-03-12T11:49:32.861Z,8.21
2023-03-12T11:52:47.763Z,8.30
2023-03-12T11:55:45.611Z,8.22
2023-03-12T11:58:53.905Z,7.97
2023-03-12T12:01:26.831Z,7.99
2023-03-12T12:04:24.090Z,7.92
2023-03-12T12:06:58.754Z,7.96
2023-03-12T12:09:44.607Z,8.06
2023-03-12T12:12:15.354Z,8.02
2023-03-12T12:15:07.635Z,8.01
2023-03-12T12:18:32.375Z,8.15
2023-03-12T12:21:27.149Z,8.06
2023-03-12T12:24:06.460Z,8.32
2023-03-12T12:30:19.620Z,8.56
2023-03-12T12:33:34.960Z,8.31
2023-03-12T12:36:11.258Z,8.20
2023-03-12T12:39:27.376Z,8.17
2023-03-12T12:41:59.926Z,8.30
2023-03-12T12:44:37.414Z,8.59
2023-03-12T12:47:07.004Z,8.68
2023-03-12T12:49:43.588Z,8.62
2023-03-12T12:52:14.183Z,8.65
2023-03-12T12:55:06.920Z,8.63
2023-03-12T12:57:34.067Z,8.63
2023-03-12T13:00:42.656Z,8.54
2023-03-12T13:03:19.693Z,8.45
2023-03-12T13:05:54.642Z,8.47
2023-03-12T13:08:39.789Z,8.43
2023-03-12T13:11:24.896Z,8.51
2023-03-12T13:14:11.720Z,8.50
2023-03-12T13:19:55.665Z,8.29
2023-03-12T13:23:12.925Z,8.19
2023-03-12T13:25:56.504Z,8.18
2023-03-12T13:28:26.586Z,8.14
2023-03-12T13:30:55.373Z,8.30
2023-03-12T13:33:43.711Z,8.27
2023-03-12T13:36:16.681Z,8.25
2023-03-12T13:39:00.892Z,8.20
2023-03-12T13:41:55.347Z,8.21
2023-03-12T13:44:32.602Z,8.20
2023-03-12T13:47:12.400Z,8.18
2023-03-12T13:49:48.391Z,8.20
2023-03-12T13:52:26.869Z,8.13
2023-03-12T13:55:25.046Z,8.24
2023-03-12T13:58:08.329Z,8.52
2023-03-12T14:00:47.198Z,8.44
2023-03-12T14:03:27.384Z,8.31
2023-03-12T14:06:17.820Z,8.39
2023-03-12T14:09:00.961Z,8.43
2023-03-12T14:11:40.448Z,8.56
2023-03-12T14:14:30.231Z,8.51
2023-03-12T14:17:11.061Z,8.34
2023-03-12T14:20:12.988Z,8.06
2023-03-12T14:22:45.666Z,8.12
2023-03-12T14:25:47.409Z,7.99
2023-03-12T14:28:26.180Z,7.96
2023-03-12T14:30:57.414Z,8.11
2023-03-12T14:34:00.522Z,8.09
2023-03-12T14:37:17.000Z,7.86
2023-03-12T14:39:55.513Z,7.80
2023-03-12T14:50:59.115Z,7.41
2023-03-12T14:53:38.553Z,7.28
2023-03-12T14:59:22.401Z,7.09
2023-03-12T15:02:07.083Z,7.09
2023-03-12T15:04:35.405Z,7.13
2023-03-12T15:07:06.836Z,7.12
2023-03-12T15:09:37.119Z,7.05
2023-03-12T15:12:08.937Z,7.06
2023-03-12T15:14:41.767Z,6.99
2023-03-12T15:17:18.832Z,7.00
2023-03-12T15:20:15.735Z,7.03
2023-03-12T15:22:44.115Z,7.04
2023-03-12T15:25:27.291Z,6.98
2023-03-12T15:28:25.523Z,7.00
2023-03-12T15:31:47.316Z,6.98
2023-03-12T15:34:32.422Z,6.89
2023-03-12T15:37:20.922Z,6.92
2023-03-12T15:40:09.709Z,6.93
2023-03-12T15:42:48.419Z,6.87
2023-03-12T15:45:30.074Z,6.85
2023-03-12T15:48:01.992Z,6.78
2023-03-12T15:50:41.559Z,6.78
2023-03-12T15:53:15.539Z,6.75
2023-03-12T15:55:55.105Z,6.74
2023-03-12T15:58:30.914Z,6.70
2023-03-12T16:01:14.036Z,6.71
2023-03-12T16:03:43.644Z,6.70
2023-03-12T16:06:19.765Z,6.66
2023-03-12T16:09:01.122Z,6.60
2023-03-12T16:11:31.858Z,6.57
2023-03-12T16:14:13.899Z,6.60
2023-03-12T16:16:48.114Z,6.62
2023-03-12T16:19:17.118Z,6.56
2023-03-12T16:21:45.513Z,6.55
2023-03-12T16:24:16.758Z,6.59
2023-03-12T16:26:51.902Z,6.59
2023-03-12T16:29:21.061Z,6.63
2023-03-12T16:32:51.341Z,6.63
2023-03-12T16:35:22.829Z,6.58
2023-03-12T16:37:50.959Z,6.60
2023-03-12T16:40:30.928Z,6.58
2023-03-12T16:43:04.175Z,6.54
2023-03-12T16:45:41.800Z,6.50
2023-03-12T16:48:27.276Z,6.47
2023-03-12T16:52:07.711Z,6.40
2023-03-12T16:54:53.156Z,6.32
2023-03-12T16:57:34.346Z,6.28
2023-03-12T17:03:40.812Z,6.25
2023-03-12T17:06:15.222Z,6.17
2023-03-12T17:08:43.466Z,6.14
2023-03-12T17:12:12.453Z,6.13
2023-03-12T17:14:24.070Z,6.17
2023-03-12T17:16:56.402Z,6.18
2023-03-12T17:19:28.810Z,6.16
2023-03-12T17:21:59.541Z,6.12
2023-03-12T17:27:26.601Z,6.04
2023-03-12T17:29:54.427Z,6.12
2023-03-12T17:32:21.998Z,6.08
2023-03-12T17:35:06.506Z,6.14
2023-03-12T17:37:34.993Z,6.14
2023-03-12T17:40:19.644Z,6.17
2023-03-12T17:42:47.692Z,6.19
2023-03-12T17:45:14.883Z,6.17
2023-03-12T17:47:42.711Z,6.13
2023-03-12T17:50:10.391Z,6.11
2023-03-12T17:52:38.215Z,6.13
2023-03-12T17:55:24.647Z,6.11
2023-03-12T17:57:52.403Z,6.12
2023-03-12T18:00:30.275Z,6.11
2023-03-12T18:02:57.637Z,6.15
2023-03-12T18:05:26.821Z,6.10
2023-03-12T18:07:55.377Z,6.10
2023-03-12T18:10:22.670Z,5.97
2023-03-12T18:12:50.004Z,5.87
2023-03-12T18:15:17.925Z,5.83
2023-03-12T18:17:56.955Z,5.77
2023-03-12T18:20:37.498Z,5.75
2023-03-12T18:26:20.410Z,5.60
2023-03-12T18:28:48.705Z,5.63
2023-03-12T18:31:29.314Z,5.72
2023-03-12T18:34:22.345Z,5.68
2023-03-12T18:36:50.275Z,5.64
2023-03-12T18:39:31.921Z,5.64
2023-03-12T18:41:59.225Z,5.56
2023-03-12T18:44:31.670Z,5.57
2023-03-12T18:47:13.310Z,5.49
2023-03-12T18:49:43.662Z,5.53
2023-03-12T18:52:15.644Z,5.49
2023-03-12T18:54:52.080Z,5.51
2023-03-12T18:57:24.908Z,5.46
2023-03-12T18:59:52.243Z,5.42
2023-03-12T19:02:25.105Z,5.35
2023-03-12T19:04:56.124Z,5.38
2023-03-12T19:07:28.368Z,5.35
2023-03-12T19:10:06.477Z,5.41
2023-03-12T19:12:45.397Z,5.30
2023-03-12T19:15:18.344Z,5.26
2023-03-12T19:17:45.958Z,5.16
2023-03-12T19:20:14.657Z,5.17
2023-03-12T19:23:15.631Z,5.21
2023-03-12T19:25:46.710Z,5.23
2023-03-12T19:28:18.850Z,5.20
2023-03-12T19:31:08.128Z,5.11
2023-03-12T19:33:36.524Z,5.01
2023-03-12T19:36:35.269Z,4.98
2023-03-12T19:39:23.155Z,4.82
2023-03-12T19:41:53.272Z,4.77
2023-03-12T19:44:23.833Z,4.75
2023-03-12T19:47:02.411Z,4.72
2023-03-12T19:49:45.936Z,4.71
2023-03-12T19:52:16.822Z,4.63
2023-03-12T19:54:51.663Z,4.49
2023-03-12T19:57:37.144Z,4.51
2023-03-12T20:00:10.274Z,4.45
2023-03-12T20:02:53.156Z,4.39
2023-03-12T20:05:47.353Z,4.31
2023-03-12T20:08:27.130Z,4.21
2023-03-12T20:13:53.298Z,4.09
2023-03-12T20:16:24.133Z,4.03
2023-03-12T20:18:55.115Z,4.02
2023-03-12T20:21:25.959Z,3.92
2023-03-12T20:24:02.281Z,3.91
2023-03-12T20:29:48.580Z,3.86
2023-03-12T20:32:23.317Z,3.82
2023-03-12T20:35:23.532Z,3.84
2023-03-12T20:37:56.557Z,3.79
2023-03-12T20:40:27.182Z,3.79
2023-03-12T20:43:06.769Z,3.78
2023-03-12T20:45:39.914Z,3.70
2023-03-12T20:48:11.719Z,3.67
2023-03-12T20:50:54.021Z,3.75
2023-03-12T20:54:11.251Z,3.82
2023-03-12T20:57:01.105Z,3.76
2023-03-12T20:59:31.522Z,3.75
2023-03-12T21:02:04.899Z,3.77
2023-03-12T21:04:32.927Z,3.79
2023-03-12T21:07:05.869Z,3.87
2023-03-12T21:09:40.537Z,3.84
2023-03-12T21:12:21.956Z,3.81
2023-03-12T21:14:55.068Z,3.87
2023-03-12T21:18:08.284Z,3.84
2023-03-12T21:21:05.618Z,3.87
2023-03-12T21:23:45.797Z,3.86
2023-03-12T21:26:20.928Z,3.91
2023-03-12T21:28:53.599Z,3.91
2023-03-12T21:31:26.374Z,3.93
2023-03-12T21:34:01.899Z,3.92
2023-03-12T21:36:31.427Z,3.92
2023-03-12T21:42:20.951Z,3.87
2023-03-12T21:44:55.262Z,3.97
2023-03-12T21:47:38.058Z,3.97
2023-03-12T21:50:27.873Z,3.98
2023-03-12T21:53:11.647Z,3.98
2023-03-12T21:59:04.218Z,3.98
2023-03-12T22:01:54.590Z,4.03
2023-03-12T22:04:26.382Z,3.99
2023-03-12T22:07:19.269Z,4.00
2023-03-12T22:13:08.289Z,4.08
2023-03-12T22:15:44.640Z,4.02
2023-03-12T22:18:16.720Z,3.99
2023-03-12T22:21:10.545Z,4.02
2023-03-12T22:23:59.978Z,4.07
2023-03-12T22:27:12.306Z,4.04
2023-03-12T22:32:27.123Z,4.06
2023-03-12T22:35:14.421Z,4.03
2023-03-12T22:37:49.068Z,3.95
2023-03-12T22:40:26.775Z,3.92
2023-03-12T22:42:59.902Z,3.93
2023-03-12T22:46:04.532Z,3.93
2023-03-12T22:48:51.752Z,3.99
2023-03-12T22:51:44.913Z,4.01
2023-03-12T23:00:30.807Z,4.04
2023-03-12T23:03:24.907Z,4.14
2023-03-12T23:06:00.616Z,3.99
2023-03-12T23:09:20.023Z,4.04
2023-03-12T23:12:13.294Z,4.07
2023-03-12T23:14:43.899Z,4.06
2023-03-12T23:17:12.029Z,4.03
2023-03-12T23:20:26.734Z,3.95
2023-03-12T23:22:54.619Z,3.89
2023-03-12T23:25:27.960Z,3.85
2023-03-12T23:27:55.412Z,3.72
2023-03-12T23:30:35.634Z,3.69
2023-03-12T23:33:17.492Z,3.75
2023-03-12T23:36:17.479Z,3.80
2023-03-12T23:39:00.525Z,3.78
2023-03-12T23:48:23.689Z,3.72
2023-03-12T23:50:56.555Z,3.79
2023-03-12T23:53:38.093Z,3.86
2023-03-12T23:58:57.150Z,3.96
